Flight Track Log - Related Links

Times and Time Zones

All times are in EDT time to prevent confusion due to time zone crossing. See the N156KT flight status page for this flight to view local times or setup timezone preferences in your user account.

Time Position Orientation Groundspeed Altitude Reporting Facility
EDT Latitude Longitude Course Direction KTS MPH feet Rate Location/Type
Sun 01:58:53 PM 45.5967 -122.6000 273° West 106 122 400  Level Seattle Center
Sun 01:59:54 PM 45.5981 -122.6394 273° West 109 125 1,300 992 Climbing Seattle Center
Sun 02:00:54 PM 45.5736 -122.6681 219° Southwest 106 122 2,400 942 Climbing Seattle Center
Sun 02:01:55 PM 45.5483 -122.6936 215° Southwest 117 135 3,200 709 Climbing Seattle Center
Sun 02:03:01 PM 45.5192 -122.7208 213° Southwest 120 138 3,900 614 Climbing Seattle Center
Sun 02:04:02 PM 45.4794 -122.7278 187° South 136 157 4,500 327 Climbing Seattle Center
Sun 02:04:51 PM 45.4506 -122.7456 203° Southwest 159 183 4,500  Level Seattle Center
Sun 02:05:08 PM 45.4381 -122.7531 203° Southwest 152 175 4,500  Level Seattle Center
Sun 02:06:04 PM 45.4006 -122.7781 205° Southwest 162 186 4,500  Level Seattle Center
Sun 02:07:10 PM 45.3581 -122.8033 203° Southwest 157 181 4,500  Level Seattle Center
Sun 02:08:12 PM 45.3136 -122.8292 202° Southwest 158 182 4,500  Level Seattle Center
Sun 02:09:13 PM 45.2719 -122.8533 202° Southwest 160 184 4,500  Level Seattle Center
Sun 02:10:14 PM 45.2308 -122.8756 201° Southwest 160 184 4,500  Level Seattle Center
Sun 02:11:16 PM 45.1864 -122.9008 202° Southwest 161 185 4,500  Level Seattle Center
Sun 02:12:17 PM 45.1450 -122.9250 202° Southwest 161 185 4,500 -49 Level Seattle Center
Sun 02:13:18 PM 45.1081 -122.9475 203° Southwest 160 184 4,400 -49 Descending Seattle Center
Sun 02:14:20 PM 45.0669 -122.9706 202° Southwest 160 184 4,400  Level Seattle Center
Sun 02:15:21 PM 45.0242 -122.9950 202° Southwest 160 184 4,400  Level Seattle Center
Sun 02:16:22 PM 44.9828 -123.0189 202° Southwest 161 185 4,400  Level Seattle Center
Sun 02:17:24 PM 44.9414 -123.0422 202° Southwest 161 185 4,400  Level Seattle Center
Sun 02:18:25 PM 44.8911 -123.0694 201° Southwest 161 185 4,400  Level Seattle Center
Sun 02:19:27 PM 44.8494 -123.0928 202° Southwest 161 185 4,400  Level Seattle Center
Sun 02:20:28 PM 44.8078 -123.1158 201° Southwest 160 184 4,400  Level Seattle Center
Sun 02:21:29 PM 44.7667 -123.1392 202° Southwest 160 184 4,400 -49 Level Seattle Center
Sun 02:22:31 PM 44.7256 -123.1614 201° Southwest 160 184 4,300 -97 Descending Seattle Center

Login

Don't have an account? Register now (free) for customized features, flight alerts, and more!